Bertrand, MO (63823)

6:07 AM CDT on July 24, 2014 (GMT -0500)
Sikeston Ridge (KMOSIKES2) Elev 326 ft | 36.89 °N, 89.60 °W | Change Station

Current weather conditions updated 4 minutes ago

Clear
Clear
60.0 °F
Feels Like 60.0 °F
N
0.0
Wind Variable Wind from NE
Gusts 0.0 mph

Today is forecast to be nearly the same temperature as yesterday.

Today
High -- | Low -- °F
--% Chance of Precip.
Yesterday
High -- | Low -- °F
Precip. -- in
5:56 AM 8:11 PM
Waning Crescent, 6% visible
Pressure 30.06 in
Visibility 10.0 miles
Clouds Clear
Dew Point 56 °F
Humidity 86%
Rainfall 0.00 in
Snow Depth Not available.
UV 0.0 out of 12
Pollen 6.30 out of 12
Air Quality Not available.
Flu Activity Not available.
METAR KCIR 241055Z AUTO 35004KT 10SM CLR 16/11 A3006 RMK AO2 P0002 T01550112

More Conditions Fewer Conditions

Pressure 30.06 in
Visibility 10.0 miles
Clouds Clear
Dew Point 56 °F
Humidity 86%
Rainfall 0.00 in
Snow Depth Not available.
UV 0.0 out of 12
Pollen 6.30 out of 12
Air Quality Not available.
Flu Activity Not available.
METAR KCIR 241055Z AUTO 35004KT 10SM CLR 16/11 A3006 RMK AO2 P0002 T01550112

More Conditions Fewer Conditions

10-Day Weather Forecast

Almanac

Astronomy

Jul. 24, 2014 Rise Set
Actual Time 5:56 AM CDT 8:11 PM CDT
Civil Twilight 5:27 AM CDT 8:40 PM CDT
Nautical Twilight 4:51 AM CDT 9:16 PM CDT
Astronomical Twilight 4:12 AM CDT 9:55 PM CDT
Moon 4:04 AM CDT 6:27 PM CDT
Length of Visible Light 15h 13m
Length of Day
14h 14m
Tomorrow will be 1m 33s shorter.
Waning Crescent, 6% of the Moon is Illuminated
Today
Waning Crescent
Jul 26
New
Aug 3
First Quarter
Aug 10
Full
Aug 17
Last Quarter

Today's Extremes

State Highs State Lows

Community

WunderPhotos

Upload Photos

1,736,971 photos uploaded!

Nearby

Snow Depth

Station Depth Elevation
No new snow has been reported.

Earthquake Activity

City Distance Mag. Time & Date
No recent earthquake activity has been reported nearby.
Minimum magnitude displayed is 2.5.

Coastal Water Temperatures

Place Temperature
No Stations Reporting

Nearby Weather Stations

Station Location Temp. Dew Point Humidity Wind Precip. Elev Updated Type
Sikeston Ridge, Sikeston, MO 60.0 °F 56 °F 86% NE  at  0.0 mph 0.00 in / hr 326 ft 6:03 AM CDT Normal
SEMO Electric Coop, Sikeston, MO 61.7 °F 55 °F 78% North  at  2.0 mph 0.00 in / hr 338 ft 6:00 AM CDT Normal
MesoWest QUARRY , Kelso, MO 65 °F - - North  at  - 0.00 in / hr 341 ft 4:25 AM CDT MADIS
MesoWest PERKNS , Perkins, MO 60 °F - - North  at  - 0.00 in / hr 332 ft 5:10 AM CDT MADIS
MesoWest AVERT , Bloomfield, MO 62 °F - - North  at  - 0.00 in / hr 309 ft 4:45 AM CDT MADIS
South Adkins Dixon Road, Wickliffe, KY 58.3 °F 54 °F 86% NNW  at  0.0 mph 0.00 in / hr 443 ft 6:07 AM CDT Rapid Fire

Show More Stations Show Fewer Stations